ノヴォシビルスク の空港の天気 - METARとTAF

トルマチェヴォ空港(ノヴォシビルスク) ( UNNT / OVB ) - ロシア ノヴォシビルスク
飛行場実況気象(Metar)
観測時間08/05 04:30 OMST (08/04 22:30 UTC)
風向・風速北 2m/s
視程10km以上
天気現象
なし
気温14℃
湿度88%
気圧1012hPa
METARUNNT 042230Z 35002MPS CAVOK 14/12 Q1012 R07/090070 R34/090070 NOSIG RMK QFE749/0999
過去の天気等 Google飛行場航空写真 Wunderground天気予報

過去48時間のMETAR

飛行場予報(TAF)
発表時間: 8/05 02:00 OMST (8/04 20:00 UTC)
予報対象時間: 5日3時 OMST ~ 6日3時 OMST
風向・風速北 3m/s 瞬間風速 8m/s
視程10km以上
なし
5日4時 OMST ~ 5日8時 OMST に一時的に
視程300m
天気現象
5日8時 OMST ~ 5日11時 OMST に徐々に
風向・風速北北東 6m/s 瞬間風速 13m/s
全天の4割程度の積乱雲 雲底高度 1220m
5日18時 OMST ~ 5日21時 OMST に徐々に
風向・風速北 3m/s 瞬間風速 8m/s
なし
TAF UNNT 042000Z 0421/0521 36003G08MPS CAVOK
TEMPO 0422/0502 0300 FG
BECMG 0502/0505 03006G13MPS SCT040CB
BECMG 0512/0515 35003G08MPS NSC